Snyder, NE (68664)

7:15 AM CDT on August 30, 2015 (GMT -0500)
West Point Public Schools Alternative Energy Building | | Change Station
CLOSE
Current Station
Personal Weather Station
Location: West Point, NE
Elevation: 1575 ft
Nearby Weather Stations

Elev 1575 ft 41.84 °N, 96.69 °W | Updated 39 seconds ago

Fog
Fog
60.4 °F
Feels Like 60.4 °F
N
4.0
Wind Variable Wind from SSW
Gusts 6.0 mph

Today
High -- | Low -- °F
--% Chance of Precip.
Yesterday
High -- | Low -- °F
Precip. -- in
6:50 AM 8:04 PM
Full, 99% visible
Pressure 30.04 in
Visibility 1.8 miles
Clouds Overcast 300 ft
Dew Point 60 °F
Humidity 98%
Rainfall 0.00 in
Snow Depth Not available.
UV 0 out of 12
Pollen 10.30 out of 12
Air Quality Not available.
Flu Activity Not available.
METAR KFET 301155Z AUTO 19003KT 1 3/4SM BR OVC003 17/16 A3004 RMK AO2 T01680160 10182 20166
Pressure 30.04 in
Visibility 1.8 miles
Clouds Overcast 300 ft
Dew Point 60 °F
Humidity 98%
Rainfall 0.00 in
Snow Depth Not available.
UV 0 out of 12
Pollen 10.30 out of 12
Air Quality Not available.
Flu Activity Not available.
METAR KFET 301155Z AUTO 19003KT 1 3/4SM BR OVC003 17/16 A3004 RMK AO2 T01680160 10182 20166

10-Day Weather Forecast

×

Almanac

Astronomy

Aug. 30, 2015 Rise Set
Actual Time
Civil Twilight
Nautical Twilight
Astronomical Twilight
Moon
Length of Visible Light
Length of Day
Tomorrow will be .
, % of the Moon is Illuminated

Today's Extremes

State Highs State Lows

Community

WunderPhotos

Upload Photos

1,850,936 photos uploaded!

WunderBlogs® & News

Nearby

Air Quality

  Air Quality AQ Index Pollutant
Not available.

Snow Depth

Station Depth Elevation

Earthquake Activity

City Distance Mag. Time & Date
Minimum magnitude displayed is 2.5.

Coastal Water Temperatures

Place Temperature

Stations

Nearby Weather Stations

Station Location Temp. Windchill Dew Point Humidity Wind Precip. Elev Updated Type